sensor_id;sensor_type;location;lat;lon;timestamp;P1;durP1;ratioP1;P2;durP2;ratioP2
6651;SDS011;3362;50.892;10.692;2023-04-06T00:01:39;6.00;;;3.43;;
6651;SDS011;3362;50.892;10.692;2023-04-06T00:04:06;3.83;;;2.53;;
6651;SDS011;3362;50.892;10.692;2023-04-06T00:06:32;10.33;;;3.83;;
6651;SDS011;3362;50.892;10.692;2023-04-06T00:08:59;5.73;;;2.83;;
6651;SDS011;3362;50.892;10.692;2023-04-06T00:11:25;4.93;;;3.13;;
6651;SDS011;3362;50.892;10.692;2023-04-06T00:13:51;5.10;;;2.90;;
6651;SDS011;3362;50.892;10.692;2023-04-06T00:16:19;5.23;;;2.67;;
6651;SDS011;3362;50.892;10.692;2023-04-06T00:18:45;4.63;;;2.73;;
6651;SDS011;3362;50.892;10.692;2023-04-06T00:21:12;3.63;;;2.90;;
6651;SDS011;3362;50.892;10.692;2023-04-06T00:23:39;4.10;;;2.67;;
6651;SDS011;3362;50.892;10.692;2023-04-06T00:26:05;4.63;;;2.60;;
6651;SDS011;3362;50.892;10.692;2023-04-06T00:28:31;8.77;;;2.77;;
6651;SDS011;3362;50.892;10.692;2023-04-06T00:30:58;6.77;;;3.07;;
6651;SDS011;3362;50.892;10.692;2023-04-06T00:33:25;3.20;;;2.30;;
6651;SDS011;3362;50.892;10.692;2023-04-06T00:35:51;6.83;;;3.40;;
6651;SDS011;3362;50.892;10.692;2023-04-06T00:38:18;5.70;;;2.83;;
6651;SDS011;3362;50.892;10.692;2023-04-06T00:40:44;4.53;;;3.23;;
6651;SDS011;3362;50.892;10.692;2023-04-06T00:43:10;6.70;;;3.17;;
6651;SDS011;3362;50.892;10.692;2023-04-06T00:45:37;5.77;;;3.37;;
6651;SDS011;3362;50.892;10.692;2023-04-06T00:48:03;4.20;;;2.87;;
6651;SDS011;3362;50.892;10.692;2023-04-06T00:50:31;4.80;;;3.07;;
6651;SDS011;3362;50.892;10.692;2023-04-06T00:52:58;4.30;;;2.50;;
6651;SDS011;3362;50.892;10.692;2023-04-06T00:55:25;5.43;;;2.67;;
6651;SDS011;3362;50.892;10.692;2023-04-06T00:57:52;4.33;;;2.93;;
6651;SDS011;3362;50.892;10.692;2023-04-06T01:00:18;4.37;;;3.03;;
6651;SDS011;3362;50.892;10.692;2023-04-06T01:02:45;5.80;;;3.47;;
6651;SDS011;3362;50.892;10.692;2023-04-06T01:05:11;2.50;;;2.20;;
6651;SDS011;3362;50.892;10.692;2023-04-06T01:07:38;5.47;;;2.97;;
6651;SDS011;3362;50.892;10.692;2023-04-06T01:10:05;4.63;;;3.53;;
6651;SDS011;3362;50.892;10.692;2023-04-06T01:12:31;6.57;;;3.17;;
6651;SDS011;3362;50.892;10.692;2023-04-06T01:14:57;3.20;;;2.50;;
6651;SDS011;3362;50.892;10.692;2023-04-06T01:17:24;6.03;;;3.33;;
6651;SDS011;3362;50.892;10.692;2023-04-06T01:19:50;6.20;;;2.70;;
6651;SDS011;3362;50.892;10.692;2023-04-06T01:22:20;5.47;;;2.73;;
6651;SDS011;3362;50.892;10.692;2023-04-06T01:24:46;4.93;;;2.70;;
6651;SDS011;3362;50.892;10.692;2023-04-06T01:27:12;4.33;;;2.90;;
6651;SDS011;3362;50.892;10.692;2023-04-06T01:29:39;4.80;;;2.40;;
6651;SDS011;3362;50.892;10.692;2023-04-06T01:32:06;4.80;;;2.97;;
6651;SDS011;3362;50.892;10.692;2023-04-06T01:34:33;3.30;;;2.80;;
6651;SDS011;3362;50.892;10.692;2023-04-06T01:36:59;3.87;;;2.97;;
6651;SDS011;3362;50.892;10.692;2023-04-06T01:39:26;2.47;;;2.27;;
6651;SDS011;3362;50.892;10.692;2023-04-06T01:41:53;4.07;;;2.30;;
6651;SDS011;3362;50.892;10.692;2023-04-06T01:44:19;3.70;;;2.40;;
6651;SDS011;3362;50.892;10.692;2023-04-06T01:46:45;4.60;;;2.93;;
6651;SDS011;3362;50.892;10.692;2023-04-06T01:49:11;3.53;;;2.70;;
6651;SDS011;3362;50.892;10.692;2023-04-06T01:51:37;5.03;;;1.97;;
6651;SDS011;3362;50.892;10.692;2023-04-06T01:54:04;3.70;;;2.40;;
6651;SDS011;3362;50.892;10.692;2023-04-06T01:56:32;4.57;;;2.70;;
6651;SDS011;3362;50.892;10.692;2023-04-06T01:58:58;4.10;;;2.23;;
6651;SDS011;3362;50.892;10.692;2023-04-06T02:01:24;3.17;;;2.10;;
6651;SDS011;3362;50.892;10.692;2023-04-06T02:03:50;3.87;;;2.83;;
6651;SDS011;3362;50.892;10.692;2023-04-06T02:06:16;6.53;;;2.37;;
6651;SDS011;3362;50.892;10.692;2023-04-06T02:08:42;3.70;;;2.33;;
6651;SDS011;3362;50.892;10.692;2023-04-06T02:11:09;8.73;;;2.83;;
6651;SDS011;3362;50.892;10.692;2023-04-06T02:13:36;7.23;;;2.27;;
6651;SDS011;3362;50.892;10.692;2023-04-06T02:16:02;2.37;;;2.07;;
6651;SDS011;3362;50.892;10.692;2023-04-06T02:18:29;4.83;;;2.13;;
6651;SDS011;3362;50.892;10.692;2023-04-06T02:20:56;4.40;;;2.60;;
6651;SDS011;3362;50.892;10.692;2023-04-06T02:23:22;3.10;;;2.17;;
6651;SDS011;3362;50.892;10.692;2023-04-06T02:25:48;3.93;;;2.20;;
6651;SDS011;3362;50.892;10.692;2023-04-06T02:28:15;5.87;;;2.10;;
6651;SDS011;3362;50.892;10.692;2023-04-06T02:30:42;9.97;;;2.53;;
6651;SDS011;3362;50.892;10.692;2023-04-06T02:33:08;5.70;;;2.53;;
6651;SDS011;3362;50.892;10.692;2023-04-06T02:35:35;4.30;;;2.43;;
6651;SDS011;3362;50.892;10.692;2023-04-06T02:38:01;4.37;;;2.37;;
6651;SDS011;3362;50.892;10.692;2023-04-06T02:40:27;4.37;;;2.50;;
6651;SDS011;3362;50.892;10.692;2023-04-06T02:42:53;4.53;;;2.60;;
6651;SDS011;3362;50.892;10.692;2023-04-06T02:45:19;4.20;;;2.30;;
6651;SDS011;3362;50.892;10.692;2023-04-06T02:47:47;6.13;;;2.33;;
6651;SDS011;3362;50.892;10.692;2023-04-06T02:50:13;4.07;;;2.00;;
6651;SDS011;3362;50.892;10.692;2023-04-06T02:52:40;8.07;;;2.50;;
6651;SDS011;3362;50.892;10.692;2023-04-06T02:55:06;3.63;;;3.10;;
6651;SDS011;3362;50.892;10.692;2023-04-06T02:57:32;4.57;;;2.73;;
6651;SDS011;3362;50.892;10.692;2023-04-06T02:59:59;5.30;;;2.80;;
6651;SDS011;3362;50.892;10.692;2023-04-06T03:02:25;3.17;;;2.27;;
6651;SDS011;3362;50.892;10.692;2023-04-06T03:04:52;3.00;;;2.70;;
6651;SDS011;3362;50.892;10.692;2023-04-06T03:07:18;5.30;;;2.60;;
6651;SDS011;3362;50.892;10.692;2023-04-06T03:09:45;6.00;;;2.57;;
6651;SDS011;3362;50.892;10.692;2023-04-06T03:12:11;7.90;;;2.80;;
6651;SDS011;3362;50.892;10.692;2023-04-06T03:14:37;2.93;;;1.90;;
6651;SDS011;3362;50.892;10.692;2023-04-06T03:17:03;6.70;;;2.40;;
6651;SDS011;3362;50.892;10.692;2023-04-06T03:19:29;4.27;;;2.43;;
6651;SDS011;3362;50.892;10.692;2023-04-06T03:21:57;5.57;;;2.50;;
6651;SDS011;3362;50.892;10.692;2023-04-06T03:24:23;7.97;;;2.23;;
6651;SDS011;3362;50.892;10.692;2023-04-06T03:26:49;5.60;;;3.30;;
6651;SDS011;3362;50.892;10.692;2023-04-06T03:29:16;6.23;;;2.83;;
6651;SDS011;3362;50.892;10.692;2023-04-06T03:31:42;6.37;;;2.90;;
6651;SDS011;3362;50.892;10.692;2023-04-06T03:34:08;3.73;;;3.20;;
6651;SDS011;3362;50.892;10.692;2023-04-06T03:36:34;7.73;;;3.43;;
6651;SDS011;3362;50.892;10.692;2023-04-06T03:39:02;5.13;;;3.27;;
6651;SDS011;3362;50.892;10.692;2023-04-06T03:41:28;6.53;;;3.30;;
6651;SDS011;3362;50.892;10.692;2023-04-06T03:43:55;4.90;;;2.63;;
6651;SDS011;3362;50.892;10.692;2023-04-06T03:46:21;4.07;;;2.47;;
6651;SDS011;3362;50.892;10.692;2023-04-06T03:48:47;2.77;;;2.03;;
6651;SDS011;3362;50.892;10.692;2023-04-06T03:51:14;5.67;;;2.37;;
6651;SDS011;3362;50.892;10.692;2023-04-06T03:53:40;5.60;;;2.07;;
6651;SDS011;3362;50.892;10.692;2023-04-06T03:56:08;5.27;;;2.03;;
6651;SDS011;3362;50.892;10.692;2023-04-06T03:58:34;4.10;;;2.10;;
6651;SDS011;3362;50.892;10.692;2023-04-06T04:01:00;3.40;;;2.30;;
6651;SDS011;3362;50.892;10.692;2023-04-06T04:03:26;3.80;;;2.47;;
6651;SDS011;3362;50.892;10.692;2023-04-06T04:05:53;5.33;;;2.63;;
6651;SDS011;3362;50.892;10.692;2023-04-06T04:08:20;5.87;;;2.87;;
6651;SDS011;3362;50.892;10.692;2023-04-06T04:10:46;3.50;;;2.53;;
6651;SDS011;3362;50.892;10.692;2023-04-06T04:13:13;5.63;;;2.63;;
6651;SDS011;3362;50.892;10.692;2023-04-06T04:15:39;3.57;;;2.33;;
6651;SDS011;3362;50.892;10.692;2023-04-06T04:18:06;2.93;;;2.17;;
6651;SDS011;3362;50.892;10.692;2023-04-06T04:20:32;4.00;;;2.50;;
6651;SDS011;3362;50.892;10.692;2023-04-06T04:22:59;3.30;;;2.17;;
6651;SDS011;3362;50.892;10.692;2023-04-06T04:25:25;4.60;;;2.37;;
6651;SDS011;3362;50.892;10.692;2023-04-06T04:27:51;3.80;;;1.90;;
6651;SDS011;3362;50.892;10.692;2023-04-06T04:30:19;5.33;;;2.40;;
6651;SDS011;3362;50.892;10.692;2023-04-06T04:32:45;2.43;;;2.10;;
6651;SDS011;3362;50.892;10.692;2023-04-06T04:35:11;4.97;;;2.40;;
6651;SDS011;3362;50.892;10.692;2023-04-06T04:37:38;5.37;;;2.50;;
6651;SDS011;3362;50.892;10.692;2023-04-06T04:40:05;5.03;;;2.07;;
6651;SDS011;3362;50.892;10.692;2023-04-06T04:42:31;2.27;;;1.77;;
6651;SDS011;3362;50.892;10.692;2023-04-06T04:44:57;7.67;;;2.90;;
6651;SDS011;3362;50.892;10.692;2023-04-06T04:47:25;4.23;;;2.53;;
6651;SDS011;3362;50.892;10.692;2023-04-06T04:49:51;4.63;;;2.20;;
6651;SDS011;3362;50.892;10.692;2023-04-06T04:52:17;1.90;;;1.67;;
6651;SDS011;3362;50.892;10.692;2023-04-06T04:54:43;3.90;;;1.90;;
6651;SDS011;3362;50.892;10.692;2023-04-06T04:57:11;3.53;;;2.73;;
6651;SDS011;3362;50.892;10.692;2023-04-06T04:59:38;4.67;;;2.30;;
6651;SDS011;3362;50.892;10.692;2023-04-06T05:02:04;8.17;;;2.40;;
6651;SDS011;3362;50.892;10.692;2023-04-06T05:04:31;2.60;;;2.30;;
6651;SDS011;3362;50.892;10.692;2023-04-06T05:07:04;5.90;;;1.97;;
6651;SDS011;3362;50.892;10.692;2023-04-06T05:09:31;7.50;;;2.50;;
6651;SDS011;3362;50.892;10.692;2023-04-06T05:11:57;9.17;;;2.60;;
6651;SDS011;3362;50.892;10.692;2023-04-06T05:14:23;5.87;;;2.73;;
6651;SDS011;3362;50.892;10.692;2023-04-06T05:16:50;4.10;;;2.47;;
6651;SDS011;3362;50.892;10.692;2023-04-06T05:19:16;5.03;;;2.43;;
6651;SDS011;3362;50.892;10.692;2023-04-06T05:21:43;3.77;;;2.50;;
6651;SDS011;3362;50.892;10.692;2023-04-06T05:24:10;5.87;;;2.60;;
6651;SDS011;3362;50.892;10.692;2023-04-06T05:26:36;4.53;;;2.63;;
6651;SDS011;3362;50.892;10.692;2023-04-06T05:29:02;4.40;;;2.23;;
6651;SDS011;3362;50.892;10.692;2023-04-06T05:31:28;5.33;;;2.50;;
6651;SDS011;3362;50.892;10.692;2023-04-06T05:33:55;4.30;;;2.47;;
6651;SDS011;3362;50.892;10.692;2023-04-06T05:36:21;3.47;;;2.10;;
6651;SDS011;3362;50.892;10.692;2023-04-06T05:38:49;2.63;;;2.07;;
6651;SDS011;3362;50.892;10.692;2023-04-06T05:41:17;7.97;;;2.90;;
6651;SDS011;3362;50.892;10.692;2023-04-06T05:43:44;6.43;;;2.23;;
6651;SDS011;3362;50.892;10.692;2023-04-06T05:46:10;5.33;;;2.40;;
6651;SDS011;3362;50.892;10.692;2023-04-06T05:48:36;5.67;;;3.20;;
6651;SDS011;3362;50.892;10.692;2023-04-06T05:51:03;5.40;;;2.37;;
6651;SDS011;3362;50.892;10.692;2023-04-06T05:53:31;8.87;;;2.63;;
6651;SDS011;3362;50.892;10.692;2023-04-06T05:56:00;6.60;;;2.37;;
6651;SDS011;3362;50.892;10.692;2023-04-06T05:58:26;4.03;;;2.50;;
6651;SDS011;3362;50.892;10.692;2023-04-06T06:00:55;3.50;;;2.50;;
6651;SDS011;3362;50.892;10.692;2023-04-06T06:03:22;4.80;;;2.97;;
6651;SDS011;3362;50.892;10.692;2023-04-06T06:05:48;5.17;;;2.40;;
6651;SDS011;3362;50.892;10.692;2023-04-06T06:08:14;7.93;;;2.50;;
6651;SDS011;3362;50.892;10.692;2023-04-06T06:10:41;5.40;;;2.77;;
6651;SDS011;3362;50.892;10.692;2023-04-06T06:13:09;8.43;;;2.73;;
6651;SDS011;3362;50.892;10.692;2023-04-06T06:15:35;6.33;;;3.17;;
6651;SDS011;3362;50.892;10.692;2023-04-06T06:18:01;5.57;;;2.97;;
6651;SDS011;3362;50.892;10.692;2023-04-06T06:20:27;6.70;;;3.40;;
6651;SDS011;3362;50.892;10.692;2023-04-06T06:22:54;6.13;;;3.33;;
6651;SDS011;3362;50.892;10.692;2023-04-06T06:25:20;15.50;;;4.07;;
6651;SDS011;3362;50.892;10.692;2023-04-06T06:27:47;5.30;;;3.53;;
6651;SDS011;3362;50.892;10.692;2023-04-06T06:30:15;10.67;;;3.43;;
6651;SDS011;3362;50.892;10.692;2023-04-06T06:32:41;5.57;;;3.07;;
6651;SDS011;3362;50.892;10.692;2023-04-06T06:35:08;16.77;;;4.25;;
6651;SDS011;3362;50.892;10.692;2023-04-06T06:37:34;5.10;;;3.73;;
6651;SDS011;3362;50.892;10.692;2023-04-06T06:40:00;6.50;;;3.97;;
6651;SDS011;3362;50.892;10.692;2023-04-06T06:42:26;7.17;;;3.60;;
6651;SDS011;3362;50.892;10.692;2023-04-06T06:44:53;5.57;;;3.47;;
6651;SDS011;3362;50.892;10.692;2023-04-06T06:47:21;6.73;;;3.53;;
6651;SDS011;3362;50.892;10.692;2023-04-06T06:49:47;11.87;;;3.43;;
6651;SDS011;3362;50.892;10.692;2023-04-06T06:52:13;6.60;;;3.60;;
6651;SDS011;3362;50.892;10.692;2023-04-06T06:54:40;6.17;;;3.63;;
6651;SDS011;3362;50.892;10.692;2023-04-06T06:57:06;4.72;;;3.15;;
6651;SDS011;3362;50.892;10.692;2023-04-06T06:59:32;4.45;;;3.55;;
6651;SDS011;3362;50.892;10.692;2023-04-06T07:01:58;5.35;;;2.60;;
6651;SDS011;3362;50.892;10.692;2023-04-06T07:04:26;5.90;;;3.38;;
6651;SDS011;3362;50.892;10.692;2023-04-06T07:06:52;5.20;;;2.58;;
6651;SDS011;3362;50.892;10.692;2023-04-06T07:09:18;4.15;;;2.80;;
6651;SDS011;3362;50.892;10.692;2023-04-06T07:11:45;6.88;;;2.78;;
6651;SDS011;3362;50.892;10.692;2023-04-06T07:14:11;4.45;;;2.80;;
6651;SDS011;3362;50.892;10.692;2023-04-06T07:16:37;6.10;;;2.90;;
6651;SDS011;3362;50.892;10.692;2023-04-06T07:19:03;2.97;;;2.17;;
6651;SDS011;3362;50.892;10.692;2023-04-06T07:21:31;4.82;;;2.97;;
6651;SDS011;3362;50.892;10.692;2023-04-06T07:23:57;6.07;;;3.40;;
6651;SDS011;3362;50.892;10.692;2023-04-06T07:26:23;5.07;;;2.70;;
6651;SDS011;3362;50.892;10.692;2023-04-06T07:28:50;6.82;;;2.92;;
6651;SDS011;3362;50.892;10.692;2023-04-06T07:31:16;5.00;;;2.80;;
6651;SDS011;3362;50.892;10.692;2023-04-06T07:33:42;7.38;;;2.72;;
6651;SDS011;3362;50.892;10.692;2023-04-06T07:36:08;4.78;;;2.70;;
6651;SDS011;3362;50.892;10.692;2023-04-06T07:38:36;5.82;;;2.88;;
6651;SDS011;3362;50.892;10.692;2023-04-06T07:41:02;5.13;;;3.20;;
6651;SDS011;3362;50.892;10.692;2023-04-06T07:43:29;6.68;;;2.72;;
6651;SDS011;3362;50.892;10.692;2023-04-06T07:45:55;5.55;;;3.05;;
6651;SDS011;3362;50.892;10.692;2023-04-06T07:48:22;5.68;;;2.97;;
6651;SDS011;3362;50.892;10.692;2023-04-06T07:50:48;7.20;;;2.55;;
6651;SDS011;3362;50.892;10.692;2023-04-06T07:53:14;5.18;;;2.85;;
6651;SDS011;3362;50.892;10.692;2023-04-06T07:55:42;4.72;;;2.85;;
6651;SDS011;3362;50.892;10.692;2023-04-06T07:58:08;6.93;;;3.47;;
6651;SDS011;3362;50.892;10.692;2023-04-06T08:00:34;5.97;;;3.15;;
6651;SDS011;3362;50.892;10.692;2023-04-06T08:03:00;3.50;;;2.60;;
6651;SDS011;3362;50.892;10.692;2023-04-06T08:05:27;5.82;;;3.00;;
6651;SDS011;3362;50.892;10.692;2023-04-06T08:07:53;4.35;;;2.55;;
6651;SDS011;3362;50.892;10.692;2023-04-06T08:10:19;9.90;;;3.20;;
6651;SDS011;3362;50.892;10.692;2023-04-06T08:12:47;5.97;;;3.00;;
6651;SDS011;3362;50.892;10.692;2023-04-06T08:15:13;6.03;;;2.75;;
6651;SDS011;3362;50.892;10.692;2023-04-06T08:17:39;8.60;;;3.05;;
6651;SDS011;3362;50.892;10.692;2023-04-06T08:20:06;6.65;;;3.10;;
6651;SDS011;3362;50.892;10.692;2023-04-06T08:22:32;4.90;;;2.80;;
6651;SDS011;3362;50.892;10.692;2023-04-06T08:24:58;5.68;;;2.45;;
6651;SDS011;3362;50.892;10.692;2023-04-06T08:27:25;5.68;;;3.33;;
6651;SDS011;3362;50.892;10.692;2023-04-06T08:29:52;8.48;;;3.13;;
6651;SDS011;3362;50.892;10.692;2023-04-06T08:32:18;7.65;;;3.10;;
6651;SDS011;3362;50.892;10.692;2023-04-06T08:34:44;6.28;;;3.33;;
6651;SDS011;3362;50.892;10.692;2023-04-06T08:37:11;7.38;;;3.85;;
6651;SDS011;3362;50.892;10.692;2023-04-06T08:39:37;6.32;;;3.45;;
6651;SDS011;3362;50.892;10.692;2023-04-06T08:42:03;5.10;;;3.38;;
6651;SDS011;3362;50.892;10.692;2023-04-06T08:44:30;6.10;;;3.80;;
6651;SDS011;3362;50.892;10.692;2023-04-06T08:46:58;5.68;;;3.35;;
6651;SDS011;3362;50.892;10.692;2023-04-06T08:49:25;5.35;;;3.28;;
6651;SDS011;3362;50.892;10.692;2023-04-06T08:51:51;6.72;;;3.90;;
6651;SDS011;3362;50.892;10.692;2023-04-06T08:54:18;5.90;;;3.75;;
6651;SDS011;3362;50.892;10.692;2023-04-06T08:56:44;7.88;;;3.70;;
6651;SDS011;3362;50.892;10.692;2023-04-06T08:59:10;6.68;;;3.42;;
6651;SDS011;3362;50.892;10.692;2023-04-06T09:01:38;5.45;;;3.42;;
6651;SDS011;3362;50.892;10.692;2023-04-06T09:04:07;5.60;;;3.55;;
6651;SDS011;3362;50.892;10.692;2023-04-06T09:06:35;6.72;;;2.90;;
6651;SDS011;3362;50.892;10.692;2023-04-06T09:09:02;6.20;;;3.42;;
6651;SDS011;3362;50.892;10.692;2023-04-06T09:11:29;5.25;;;3.13;;
6651;SDS011;3362;50.892;10.692;2023-04-06T09:13:55;3.95;;;2.75;;
6651;SDS011;3362;50.892;10.692;2023-04-06T09:16:22;4.93;;;3.10;;
6651;SDS011;3362;50.892;10.692;2023-04-06T09:18:49;3.90;;;2.70;;
6651;SDS011;3362;50.892;10.692;2023-04-06T09:21:17;5.35;;;3.25;;
6651;SDS011;3362;50.892;10.692;2023-04-06T09:23:44;7.35;;;3.38;;
6651;SDS011;3362;50.892;10.692;2023-04-06T09:26:10;5.20;;;3.08;;
6651;SDS011;3362;50.892;10.692;2023-04-06T09:28:44;4.60;;;3.28;;
6651;SDS011;3362;50.892;10.692;2023-04-06T09:31:10;4.78;;;2.75;;
6651;SDS011;3362;50.892;10.692;2023-04-06T09:33:37;8.98;;;2.67;;
6651;SDS011;3362;50.892;10.692;2023-04-06T09:36:04;3.75;;;2.70;;
6651;SDS011;3362;50.892;10.692;2023-04-06T09:38:31;6.53;;;3.13;;
6651;SDS011;3362;50.892;10.692;2023-04-06T09:40:57;4.97;;;2.65;;
6651;SDS011;3362;50.892;10.692;2023-04-06T09:43:24;4.03;;;2.85;;
6651;SDS011;3362;50.892;10.692;2023-04-06T09:45:50;3.40;;;2.42;;
6651;SDS011;3362;50.892;10.692;2023-04-06T09:48:17;7.45;;;3.35;;
6651;SDS011;3362;50.892;10.692;2023-04-06T09:50:44;6.07;;;3.28;;
6651;SDS011;3362;50.892;10.692;2023-04-06T09:53:10;3.72;;;3.00;;
6651;SDS011;3362;50.892;10.692;2023-04-06T09:55:39;6.63;;;2.78;;
6651;SDS011;3362;50.892;10.692;2023-04-06T09:58:07;5.13;;;2.83;;
6651;SDS011;3362;50.892;10.692;2023-04-06T10:00:40;4.90;;;3.05;;
6651;SDS011;3362;50.892;10.692;2023-04-06T10:03:10;6.03;;;3.33;;
6651;SDS011;3362;50.892;10.692;2023-04-06T10:05:42;4.47;;;2.80;;
6651;SDS011;3362;50.892;10.692;2023-04-06T10:08:08;5.47;;;2.88;;
6651;SDS011;3362;50.892;10.692;2023-04-06T10:10:35;6.00;;;3.22;;
6651;SDS011;3362;50.892;10.692;2023-04-06T10:13:03;5.72;;;3.00;;
6651;SDS011;3362;50.892;10.692;2023-04-06T10:15:29;6.60;;;3.08;;
6651;SDS011;3362;50.892;10.692;2023-04-06T10:17:55;7.18;;;3.38;;
6651;SDS011;3362;50.892;10.692;2023-04-06T10:20:23;6.13;;;3.47;;
6651;SDS011;3362;50.892;10.692;2023-04-06T10:22:51;8.15;;;3.63;;
6651;SDS011;3362;50.892;10.692;2023-04-06T10:25:25;9.85;;;3.60;;
6651;SDS011;3362;50.892;10.692;2023-04-06T10:27:58;5.10;;;3.63;;
6651;SDS011;3362;50.892;10.692;2023-04-06T10:30:25;6.30;;;3.42;;
6651;SDS011;3362;50.892;10.692;2023-04-06T10:32:52;6.70;;;3.08;;
6651;SDS011;3362;50.892;10.692;2023-04-06T10:35:18;6.13;;;3.78;;
6651;SDS011;3362;50.892;10.692;2023-04-06T10:37:51;8.20;;;4.03;;
6651;SDS011;3362;50.892;10.692;2023-04-06T10:40:18;7.30;;;3.85;;
6651;SDS011;3362;50.892;10.692;2023-04-06T10:42:45;6.57;;;4.18;;
6651;SDS011;3362;50.892;10.692;2023-04-06T10:45:18;7.43;;;5.75;;
6651;SDS011;3362;50.892;10.692;2023-04-06T10:47:46;11.18;;;5.68;;
6651;SDS011;3362;50.892;10.692;2023-04-06T10:50:12;11.43;;;7.07;;
6651;SDS011;3362;50.892;10.692;2023-04-06T10:52:40;6.45;;;4.15;;
6651;SDS011;3362;50.892;10.692;2023-04-06T10:55:07;5.57;;;3.67;;
6651;SDS011;3362;50.892;10.692;2023-04-06T10:57:34;5.95;;;3.70;;
6651;SDS011;3362;50.892;10.692;2023-04-06T11:00:02;5.72;;;3.78;;
6651;SDS011;3362;50.892;10.692;2023-04-06T11:02:29;5.82;;;3.38;;
6651;SDS011;3362;50.892;10.692;2023-04-06T11:04:57;7.97;;;4.38;;
6651;SDS011;3362;50.892;10.692;2023-04-06T11:07:23;5.90;;;4.03;;
6651;SDS011;3362;50.892;10.692;2023-04-06T11:09:49;7.30;;;4.10;;
6651;SDS011;3362;50.892;10.692;2023-04-06T11:12:20;6.03;;;4.13;;
6651;SDS011;3362;50.892;10.692;2023-04-06T11:14:52;5.65;;;3.90;;
6651;SDS011;3362;50.892;10.692;2023-04-06T11:17:24;6.22;;;3.97;;
6651;SDS011;3362;50.892;10.692;2023-04-06T11:19:51;5.95;;;4.47;;
6651;SDS011;3362;50.892;10.692;2023-04-06T11:22:18;7.18;;;4.28;;
6651;SDS011;3362;50.892;10.692;2023-04-06T11:24:44;5.95;;;3.85;;
6651;SDS011;3362;50.892;10.692;2023-04-06T11:27:11;6.47;;;3.72;;
6651;SDS011;3362;50.892;10.692;2023-04-06T11:29:37;4.65;;;4.03;;
6651;SDS011;3362;50.892;10.692;2023-04-06T11:32:05;6.28;;;3.78;;
6651;SDS011;3362;50.892;10.692;2023-04-06T11:34:32;4.53;;;3.38;;
6651;SDS011;3362;50.892;10.692;2023-04-06T11:37:01;4.57;;;3.70;;
6651;SDS011;3362;50.892;10.692;2023-04-06T11:39:30;7.10;;;4.20;;
6651;SDS011;3362;50.892;10.692;2023-04-06T11:41:57;6.25;;;3.53;;
6651;SDS011;3362;50.892;10.692;2023-04-06T11:44:28;6.13;;;3.50;;
6651;SDS011;3362;50.892;10.692;2023-04-06T11:46:56;4.63;;;4.03;;
6651;SDS011;3362;50.892;10.692;2023-04-06T11:49:26;7.50;;;3.50;;
6651;SDS011;3362;50.892;10.692;2023-04-06T11:51:52;4.80;;;3.58;;
6651;SDS011;3362;50.892;10.692;2023-04-06T11:54:28;7.75;;;4.13;;
6651;SDS011;3362;50.892;10.692;2023-04-06T11:56:56;6.95;;;4.00;;
6651;SDS011;3362;50.892;10.692;2023-04-06T11:59:22;4.90;;;3.60;;
6651;SDS011;3362;50.892;10.692;2023-04-06T12:01:48;6.57;;;3.78;;
6651;SDS011;3362;50.892;10.692;2023-04-06T12:04:14;5.47;;;3.60;;
6651;SDS011;3362;50.892;10.692;2023-04-06T12:06:42;4.57;;;3.25;;
6651;SDS011;3362;50.892;10.692;2023-04-06T12:09:08;6.57;;;3.03;;
6651;SDS011;3362;50.892;10.692;2023-04-06T12:11:35;6.05;;;3.92;;
6651;SDS011;3362;50.892;10.692;2023-04-06T12:14:03;9.40;;;4.05;;
6651;SDS011;3362;50.892;10.692;2023-04-06T12:16:30;4.20;;;3.50;;
6651;SDS011;3362;50.892;10.692;2023-04-06T12:18:56;4.75;;;3.90;;
6651;SDS011;3362;50.892;10.692;2023-04-06T12:21:22;4.82;;;3.25;;
6651;SDS011;3362;50.892;10.692;2023-04-06T12:23:48;5.85;;;3.95;;
6651;SDS011;3362;50.892;10.692;2023-04-06T12:26:15;6.88;;;4.43;;
6651;SDS011;3362;50.892;10.692;2023-04-06T12:28:41;4.47;;;4.07;;
6651;SDS011;3362;50.892;10.692;2023-04-06T12:31:15;5.55;;;3.70;;
6651;SDS011;3362;50.892;10.692;2023-04-06T12:33:41;6.78;;;4.07;;
6651;SDS011;3362;50.892;10.692;2023-04-06T12:36:11;4.28;;;3.75;;
6651;SDS011;3362;50.892;10.692;2023-04-06T12:38:37;6.15;;;3.85;;
6651;SDS011;3362;50.892;10.692;2023-04-06T12:41:04;6.55;;;3.38;;
6651;SDS011;3362;50.892;10.692;2023-04-06T12:43:31;5.07;;;3.90;;
6651;SDS011;3362;50.892;10.692;2023-04-06T12:45:57;8.63;;;3.72;;
6651;SDS011;3362;50.892;10.692;2023-04-06T12:48:25;4.70;;;3.60;;
6651;SDS011;3362;50.892;10.692;2023-04-06T12:50:55;5.70;;;3.47;;
6651;SDS011;3362;50.892;10.692;2023-04-06T12:53:22;6.85;;;3.95;;
6651;SDS011;3362;50.892;10.692;2023-04-06T12:55:48;5.07;;;3.25;;
6651;SDS011;3362;50.892;10.692;2023-04-06T12:58:14;5.75;;;3.63;;
6651;SDS011;3362;50.892;10.692;2023-04-06T13:00:41;5.00;;;4.15;;
6651;SDS011;3362;50.892;10.692;2023-04-06T13:03:07;6.50;;;4.03;;
6651;SDS011;3362;50.892;10.692;2023-04-06T13:05:35;5.88;;;3.33;;
6651;SDS011;3362;50.892;10.692;2023-04-06T13:08:01;4.30;;;3.20;;
6651;SDS011;3362;50.892;10.692;2023-04-06T13:10:28;4.90;;;3.90;;
6651;SDS011;3362;50.892;10.692;2023-04-06T13:12:54;5.43;;;3.88;;
6651;SDS011;3362;50.892;10.692;2023-04-06T13:15:20;4.47;;;3.38;;
6651;SDS011;3362;50.892;10.692;2023-04-06T13:17:46;4.18;;;3.17;;
6651;SDS011;3362;50.892;10.692;2023-04-06T13:20:12;4.80;;;3.50;;
6651;SDS011;3362;50.892;10.692;2023-04-06T13:22:40;5.75;;;3.60;;
6651;SDS011;3362;50.892;10.692;2023-04-06T13:25:07;5.25;;;3.47;;
6651;SDS011;3362;50.892;10.692;2023-04-06T13:27:33;7.32;;;3.40;;
6651;SDS011;3362;50.892;10.692;2023-04-06T13:30:00;4.82;;;3.72;;
6651;SDS011;3362;50.892;10.692;2023-04-06T13:32:27;7.57;;;3.88;;
6651;SDS011;3362;50.892;10.692;2023-04-06T13:34:54;7.78;;;4.60;;
6651;SDS011;3362;50.892;10.692;2023-04-06T13:37:20;4.95;;;3.85;;
6651;SDS011;3362;50.892;10.692;2023-04-06T13:39:49;5.10;;;3.85;;
6651;SDS011;3362;50.892;10.692;2023-04-06T13:42:15;5.22;;;3.70;;
6651;SDS011;3362;50.892;10.692;2023-04-06T13:44:41;4.22;;;3.05;;
6651;SDS011;3362;50.892;10.692;2023-04-06T13:47:07;4.25;;;3.70;;
6651;SDS011;3362;50.892;10.692;2023-04-06T13:49:34;5.28;;;3.53;;
6651;SDS011;3362;50.892;10.692;2023-04-06T13:52:00;4.78;;;4.05;;
6651;SDS011;3362;50.892;10.692;2023-04-06T13:54:27;5.32;;;3.95;;
6651;SDS011;3362;50.892;10.692;2023-04-06T13:56:55;4.32;;;3.83;;
6651;SDS011;3362;50.892;10.692;2023-04-06T13:59:21;3.35;;;3.05;;
6651;SDS011;3362;50.892;10.692;2023-04-06T14:01:48;6.43;;;3.60;;
6651;SDS011;3362;50.892;10.692;2023-04-06T14:04:14;3.55;;;2.63;;
6651;SDS011;3362;50.892;10.692;2023-04-06T14:06:40;4.28;;;3.30;;
6651;SDS011;3362;50.892;10.692;2023-04-06T14:09:06;3.97;;;3.10;;
6651;SDS011;3362;50.892;10.692;2023-04-06T14:11:32;3.45;;;2.95;;
6651;SDS011;3362;50.892;10.692;2023-04-06T14:14:00;4.20;;;3.08;;
6651;SDS011;3362;50.892;10.692;2023-04-06T14:16:26;3.30;;;3.00;;
6651;SDS011;3362;50.892;10.692;2023-04-06T14:18:52;4.85;;;3.55;;
6651;SDS011;3362;50.892;10.692;2023-04-06T14:21:19;5.80;;;3.25;;
6651;SDS011;3362;50.892;10.692;2023-04-06T14:23:45;3.03;;;2.60;;
6651;SDS011;3362;50.892;10.692;2023-04-06T14:26:12;5.65;;;3.28;;
6651;SDS011;3362;50.892;10.692;2023-04-06T14:28:38;4.63;;;3.03;;
6651;SDS011;3362;50.892;10.692;2023-04-06T14:31:10;5.22;;;3.30;;
6651;SDS011;3362;50.892;10.692;2023-04-06T14:33:38;3.95;;;2.95;;
6651;SDS011;3362;50.892;10.692;2023-04-06T14:36:05;4.70;;;3.38;;
6651;SDS011;3362;50.892;10.692;2023-04-06T14:38:31;4.28;;;3.47;;
6651;SDS011;3362;50.892;10.692;2023-04-06T14:40:57;3.97;;;3.03;;
6651;SDS011;3362;50.892;10.692;2023-04-06T14:43:24;4.55;;;3.20;;
6651;SDS011;3362;50.892;10.692;2023-04-06T14:45:51;5.82;;;3.25;;
6651;SDS011;3362;50.892;10.692;2023-04-06T14:48:18;5.20;;;3.08;;
6651;SDS011;3362;50.892;10.692;2023-04-06T14:50:51;3.65;;;3.25;;
6651;SDS011;3362;50.892;10.692;2023-04-06T14:53:18;4.05;;;2.40;;
6651;SDS011;3362;50.892;10.692;2023-04-06T14:55:44;3.88;;;3.28;;
6651;SDS011;3362;50.892;10.692;2023-04-06T14:58:10;3.28;;;2.97;;